Time;durP1;ratioP1;P1;durP2;ratioP2;P2;SDS_P1;SDS_P2;PMS_P1;PMS_P2;Temp;Humidity;BMP_temperature;BMP_pressure;BME280_temperature;BME280_humidity;BME280_pressure;Samples;Min_cycle;Max_cycle;Signal;HPM_P1;HPM_P2
2022/08/29 00:01:20;;;;;;;;;;;;;;;19.42;78.48;95611.53;5025983;28;20457;-66
2022/08/29 00:03:45;;;;;;;;;;;;;;;19.41;78.57;95603.78;5024839;28;20048;-67
2022/08/29 00:06:10;;;;;;;;;;;;;;;19.41;78.71;95603.78;5029303;28;20010;-66
2022/08/29 00:08:36;;;;;;;;;;;;;;;19.39;78.81;95601.44;5028070;28;20060;-66
2022/08/29 00:11:01;;;;;;;;;;;;;;;19.36;79.00;95609.44;5018535;28;20121;-66
2022/08/29 00:13:26;;;;;;;;;;;;;;;19.37;78.81;95609.09;5024688;28;20099;-64
2022/08/29 00:15:52;;;;;;;;;;;;;;;19.39;78.66;95611.44;5023803;28;20100;-65
2022/08/29 00:18:18;;;;;;;;;;;;;;;19.35;78.67;95608.66;5027479;28;20014;-63
2022/08/29 00:20:43;;;;;;;;;;;;;;;19.29;78.56;95606.56;5024028;28;20071;-66
2022/08/29 00:23:09;;;;;;;;;;;;;;;19.29;78.86;95606.56;5012392;28;20924;-66
2022/08/29 00:25:34;;;;;;;;;;;;;;;19.27;78.69;95614.22;5013366;28;20006;-67
2022/08/29 00:28:00;;;;;;;;;;;;;;;19.25;79.02;95614.59;5025265;28;20012;-66
2022/08/29 00:30:25;;;;;;;;;;;;;;;19.24;79.29;95613.00;5024403;28;20009;-66
2022/08/29 00:32:51;;;;;;;;;;;;;;;19.23;79.08;95612.22;5023718;28;20352;-66
2022/08/29 00:35:21;;;;;;;;;;;;;;;19.27;79.17;95611.53;5028240;28;20059;-66
2022/08/29 00:37:46;;;;;;;;;;;;;;;19.29;79.23;95620.03;5025625;28;20010;-66
2022/08/29 00:40:15;;;;;;;;;;;;;;;19.27;78.86;95619.63;5023771;28;20005;-66
2022/08/29 00:42:40;;;;;;;;;;;;;;;19.27;78.69;95619.63;5024040;28;20506;-66
2022/08/29 00:45:07;;;;;;;;;;;;;;;19.26;78.44;95618.06;5023808;28;20016;-66
2022/08/29 00:47:35;;;;;;;;;;;;;;;19.21;78.48;95611.00;5027494;28;20006;-64
2022/08/29 00:50:01;;;;;;;;;;;;;;;18.88;78.20;95571.66;5024428;28;20006;-65
2022/08/29 00:52:31;;;;;;;;;;;;;;;19.23;78.49;95609.53;5025045;28;20013;-65
2022/08/29 00:54:58;;;;;;;;;;;;;;;19.19;78.54;95611.38;5026622;28;20053;-64
2022/08/29 00:57:25;;;;;;;;;;;;;;;19.18;78.90;95612.47;5025985;28;20014;-65
2022/08/29 00:59:50;;;;;;;;;;;;;;;19.16;79.12;95606.66;5022967;28;20009;-65
2022/08/29 01:02:16;;;;;;;;;;;;;;;19.17;78.87;95608.22;5022808;28;20414;-64
2022/08/29 01:04:41;;;;;;;;;;;;;;;19.15;78.64;95605.09;5026342;28;20013;-64
2022/08/29 01:07:08;;;;;;;;;;;;;;;19.16;78.47;95606.66;5024670;28;20037;-65
2022/08/29 01:09:34;;;;;;;;;;;;;;;19.18;78.80;95603.59;5024080;28;20010;-65
2022/08/29 01:12:15;;;;;;;;;;;;;;;19.15;78.42;95607.78;5025213;28;20111;-65
2022/08/29 01:14:50;;;;;;;;;;;;;;;19.10;78.54;95599.97;5013351;28;20013;-66
2022/08/29 01:17:18;;;;;;;;;;;;;;;19.08;78.62;95596.03;5024453;28;20009;-65
2022/08/29 01:19:46;;;;;;;;;;;;;;;19.08;78.86;95598.72;5024166;28;20014;-66
2022/08/29 01:22:33;;;;;;;;;;;;;;;19.10;78.99;95602.66;5023020;28;20029;-65
2022/08/29 01:25:00;;;;;;;;;;;;;;;19.07;79.01;95606.03;5024131;28;20849;-66
2022/08/29 01:27:27;;;;;;;;;;;;;;;19.09;78.65;95601.09;5024880;28;20006;-65
2022/08/29 01:29:52;;;;;;;;;;;;;;;18.45;78.96;95508.56;5024875;28;20101;-66
2022/08/29 01:32:17;;;;;;;;;;;;;;;19.03;78.83;95607.06;5021702;28;20125;-66
2022/08/29 01:34:42;;;;;;;;;;;;;;;18.89;78.85;95602.91;5024573;28;20010;-65
2022/08/29 01:37:10;;;;;;;;;;;;;;;18.96;78.67;95592.28;5024696;28;20059;-66
2022/08/29 01:39:37;;;;;;;;;;;;;;;18.95;78.63;95595.34;5010541;28;20474;-66
2022/08/29 01:42:08;;;;;;;;;;;;;;;18.91;78.40;95597.94;5025357;28;20486;-65
2022/08/29 01:44:34;;;;;;;;;;;;;;;18.96;78.75;95597.69;5026004;28;20056;-65
2022/08/29 01:47:00;;;;;;;;;;;;;;;18.98;78.61;95600.03;5025689;28;20432;-65
2022/08/29 01:49:26;;;;;;;;;;;;;;;18.94;78.71;95599.16;5015596;28;20045;-65
2022/08/29 01:51:52;;;;;;;;;;;;;;;18.92;79.13;95598.72;5021945;28;20049;-65
2022/08/29 01:54:17;;;;;;;;;;;;;;;18.92;79.03;95593.31;5023590;28;20091;-67
2022/08/29 01:56:44;;;;;;;;;;;;;;;18.88;78.61;95589.75;5013731;28;20018;-66
2022/08/29 01:59:12;;;;;;;;;;;;;;;18.87;78.91;95593.56;5022438;28;20425;-65
2022/08/29 02:01:39;;;;;;;;;;;;;;;18.86;78.90;95592.00;5025537;28;20006;-65
2022/08/29 02:04:07;;;;;;;;;;;;;;;18.85;79.17;95585.84;5019118;28;20012;-66
2022/08/29 02:06:33;;;;;;;;;;;;;;;18.81;79.07;95592.25;5010269;28;20010;-66
2022/08/29 02:08:59;;;;;;;;;;;;;;;18.80;78.80;95588.00;5026873;28;20010;-65
2022/08/29 02:11:24;;;;;;;;;;;;;;;18.81;79.00;95587.66;5029250;28;20052;-65
2022/08/29 02:13:50;;;;;;;;;;;;;;;18.80;79.12;95588.78;5028055;28;20669;-65
2022/08/29 02:16:16;;;;;;;;;;;;;;;18.86;78.77;95589.31;5022725;28;20006;-65
2022/08/29 02:18:42;;;;;;;;;;;;;;;18.85;78.71;95590.44;5027154;28;20017;-65
2022/08/29 02:21:08;;;;;;;;;;;;;;;18.69;78.14;95585.81;5019456;28;20040;-66
2022/08/29 02:23:34;;;;;;;;;;;;;;;18.72;78.53;95581.63;5029492;23;20015;-69
2022/08/29 02:25:59;;;;;;;;;;;;;;;18.74;78.51;95586.69;4985269;28;20007;-69
2022/08/29 02:28:25;;;;;;;;;;;;;;;18.70;78.83;95586.59;4988005;28;20033;-69
2022/08/29 02:30:51;;;;;;;;;;;;;;;18.64;78.86;95588.72;4985281;28;20095;-69
2022/08/29 02:33:17;;;;;;;;;;;;;;;18.65;78.64;95590.28;4990342;28;20010;-69
2022/08/29 02:35:43;;;;;;;;;;;;;;;18.67;79.06;95593.41;4986664;28;20011;-69
2022/08/29 02:38:09;;;;;;;;;;;;;;;18.68;78.81;95586.13;4992262;28;20014;-69
2022/08/29 02:40:34;;;;;;;;;;;;;;;18.70;78.87;95589.28;4988363;28;20017;-68
2022/08/29 02:43:00;;;;;;;;;;;;;;;18.64;78.70;95588.72;4989560;28;20006;-69
2022/08/29 02:45:25;;;;;;;;;;;;;;;18.64;78.85;95587.94;4987196;28;20097;-69
2022/08/29 02:47:51;;;;;;;;;;;;;;;18.62;78.97;95584.78;4989215;28;20068;-69
2022/08/29 02:50:16;;;;;;;;;;;;;;;18.60;78.88;95579.75;4990054;28;20109;-68
2022/08/29 02:52:42;;;;;;;;;;;;;;;18.60;78.72;95579.75;4990320;28;20014;-69
2022/08/29 02:55:08;;;;;;;;;;;;;;;18.58;78.80;95579.34;4981712;28;20109;-68
2022/08/29 02:57:33;;;;;;;;;;;;;;;18.59;79.09;95588.97;4994805;28;20018;-69
2022/08/29 02:59:59;;;;;;;;;;;;;;;18.60;79.45;95584.38;4989802;28;20469;-68
2022/08/29 03:02:24;;;;;;;;;;;;;;;18.63;79.08;95587.16;4989294;28;20007;-69
2022/08/29 03:04:49;;;;;;;;;;;;;;;18.62;78.73;95593.66;5004847;28;20033;-69
2022/08/29 03:07:15;;;;;;;;;;;;;;;18.56;78.43;95588.88;4989644;28;20054;-69
2022/08/29 03:09:40;;;;;;;;;;;;;;;18.53;78.84;95581.47;4983235;28;20014;-69
2022/08/29 03:12:05;;;;;;;;;;;;;;;18.53;78.58;95595.75;4989709;28;20513;-69
2022/08/29 03:14:31;;;;;;;;;;;;;;;18.53;78.76;95592.25;4988441;28;20475;-69
2022/08/29 03:16:56;;;;;;;;;;;;;;;18.49;78.71;95586.78;4990373;28;20046;-69
2022/08/29 03:19:21;;;;;;;;;;;;;;;18.47;78.47;95586.31;4988812;28;20471;-69
2022/08/29 03:21:47;;;;;;;;;;;;;;;18.45;78.17;95593.97;4988707;28;20012;-69
2022/08/29 03:24:12;;;;;;;;;;;;;;;18.44;78.78;95587.81;4987739;28;20961;-69
2022/08/29 03:26:37;;;;;;;;;;;;;;;18.39;78.60;95589.97;4986666;28;20447;-69
2022/08/29 03:29:03;;;;;;;;;;;;;;;18.35;78.69;95581.00;4981421;28;20010;-69
2022/08/29 03:31:28;;;;;;;;;;;;;;;18.34;78.63;95587.50;4989605;28;20028;-69
2022/08/29 03:33:54;;;;;;;;;;;;;;;18.28;78.70;95586.19;4988595;28;20014;-69
2022/08/29 03:36:19;;;;;;;;;;;;;;;18.29;78.45;95590.44;4977773;28;20006;-69
2022/08/29 03:38:45;;;;;;;;;;;;;;;18.30;78.36;95587.41;4986798;28;20019;-69
2022/08/29 03:41:11;;;;;;;;;;;;;;;18.27;78.54;95584.59;4981800;28;20010;-69
2022/08/29 03:43:36;;;;;;;;;;;;;;;18.25;78.26;95593.03;4987650;28;20006;-68
2022/08/29 03:46:02;;;;;;;;;;;;;;;18.25;78.66;95586.84;4985391;28;20530;-69
2022/08/29 03:48:27;;;;;;;;;;;;;;;18.23;78.50;95597.19;4988590;28;20478;-69
2022/08/29 03:50:52;;;;;;;;;;;;;;;18.14;78.33;95592.72;4990872;28;20010;-69
2022/08/29 03:53:18;;;;;;;;;;;;;;;18.21;78.72;95600.22;4988884;28;20105;-69
2022/08/29 03:55:43;;;;;;;;;;;;;;;18.18;78.61;95595.53;4988149;28;20035;-69
2022/08/29 03:58:08;;;;;;;;;;;;;;;18.19;78.80;95597.88;4987928;28;20017;-69
2022/08/29 04:00:34;;;;;;;;;;;;;;;18.18;78.84;95604.38;4986778;28;20064;-69
2022/08/29 04:02:59;;;;;;;;;;;;;;;18.07;78.25;95605.22;5005125;28;20360;-69
2022/08/29 04:05:25;;;;;;;;;;;;;;;18.14;78.68;95605.41;4986756;28;20363;-69
2022/08/29 04:07:53;;;;;;;;;;;;;;;18.20;78.38;95606.72;4987966;28;20007;-68
2022/08/29 04:10:21;;;;;;;;;;;;;;;18.19;78.25;95605.94;4987802;28;20018;-68
2022/08/29 04:12:46;;;;;;;;;;;;;;;18.14;77.20;95603.50;4989389;28;20006;-68
2022/08/29 04:15:11;;;;;;;;;;;;;;;18.17;78.35;95610.91;4983849;28;20562;-69
2022/08/29 04:17:37;;;;;;;;;;;;;;;18.27;78.55;95615.03;4988955;28;20053;-68
2022/08/29 04:20:03;;;;;;;;;;;;;;;18.28;78.53;95611.22;4986130;28;20364;-71
2022/08/29 04:22:29;;;;;;;;;;;;;;;18.29;78.33;95606.59;4987494;28;20109;-68
2022/08/29 04:24:54;;;;;;;;;;;;;;;18.28;78.24;95616.59;4984774;28;20483;-70
2022/08/29 04:27:19;;;;;;;;;;;;;;;18.29;78.16;95603.91;4984845;28;20029;-71
2022/08/29 04:29:47;;;;;;;;;;;;;;;18.31;78.05;95604.34;4987518;28;20006;-72
2022/08/29 04:32:12;;;;;;;;;;;;;;;18.30;77.95;95606.25;4982731;28;20042;-72
2022/08/29 04:34:38;;;;;;;;;;;;;;;18.28;78.06;95616.59;4988106;28;20049;-71
2022/08/29 04:37:03;;;;;;;;;;;;;;;18.26;77.76;95621.50;4988119;28;20459;-71
2022/08/29 04:39:28;;;;;;;;;;;;;;;18.23;78.04;95622.22;4988013;28;20693;-71
2022/08/29 04:41:53;;;;;;;;;;;;;;;18.23;77.75;95619.53;4986979;28;20014;-72
2022/08/29 04:44:19;;;;;;;;;;;;;;;18.23;77.60;95618.75;4983634;28;20010;-72
2022/08/29 04:46:44;;;;;;;;;;;;;;;18.27;77.57;95622.28;4986398;28;20010;-72
2022/08/29 04:49:09;;;;;;;;;;;;;;;18.28;77.50;95631.97;4988680;28;20014;-71
2022/08/29 04:51:35;;;;;;;;;;;;;;;18.32;77.65;95635.53;4989004;28;20497;-69
2022/08/29 04:54:01;;;;;;;;;;;;;;;18.38;77.75;95634.97;4987300;28;20513;-71
2022/08/29 04:56:26;;;;;;;;;;;;;;;18.45;77.84;95629.00;4989160;28;20011;-71
2022/08/29 04:58:51;;;;;;;;;;;;;;;18.52;77.69;95631.09;4986120;28;20014;-72
2022/08/29 05:01:18;;;;;;;;;;;;;;;18.59;77.40;95631.31;4978393;28;20007;-68
2022/08/29 05:03:44;;;;;;;;;;;;;;;18.63;77.52;95632.97;4984493;28;20007;-70
2022/08/29 05:06:10;;;;;;;;;;;;;;;18.68;77.41;95643.53;4987489;28;20026;-70
2022/08/29 05:08:37;;;;;;;;;;;;;;;18.75;77.39;95636.78;4981410;28;20014;-70
2022/08/29 05:11:05;;;;;;;;;;;;;;;18.80;76.91;95642.69;4988822;28;20014;-71
2022/08/29 05:13:31;;;;;;;;;;;;;;;18.87;76.88;95644.78;4988542;28;20006;-70
2022/08/29 05:15:56;;;;;;;;;;;;;;;18.93;76.99;95640.72;4982176;28;20423;-70
2022/08/29 05:18:22;;;;;;;;;;;;;;;18.98;76.93;95637.75;4983399;28;20062;-70
2022/08/29 05:20:48;;;;;;;;;;;;;;;19.04;76.61;95633.72;4986755;28;20088;-70
2022/08/29 05:23:17;;;;;;;;;;;;;;;19.07;76.79;95638.38;4985005;28;20395;-70
2022/08/29 05:25:44;;;;;;;;;;;;;;;19.11;76.71;95639.28;4987304;28;20010;-70
2022/08/29 05:28:10;;;;;;;;;;;;;;;19.18;76.73;95636.75;4983761;28;20014;-71
2022/08/29 05:30:39;;;;;;;;;;;;;;;19.23;76.69;95639.19;4981846;28;20015;-69
2022/08/29 05:33:05;;;;;;;;;;;;;;;19.29;76.58;95641.63;4984102;28;20014;-70
2022/08/29 05:35:31;;;;;;;;;;;;;;;19.34;76.78;95639.44;4987294;28;20014;-69
2022/08/29 05:37:56;;;;;;;;;;;;;;;19.41;76.79;95645.03;4986852;28;20021;-68
2022/08/29 05:40:21;;;;;;;;;;;;;;;19.50;76.90;95647.56;4982340;28;20006;-68
2022/08/29 05:42:46;;;;;;;;;;;;;;;19.56;76.66;95646.19;4987146;28;20061;-68
2022/08/29 05:45:12;;;;;;;;;;;;;;;19.64;76.60;95645.22;4987583;28;20006;-68
2022/08/29 05:47:37;;;;;;;;;;;;;;;19.72;76.57;95646.97;4991640;28;20006;-68
2022/08/29 05:50:02;;;;;;;;;;;;;;;19.80;76.49;95645.22;4979113;28;20011;-68
2022/08/29 05:52:28;;;;;;;;;;;;;;;19.86;76.63;95646.53;4995296;28;20522;-67
2022/08/29 05:54:53;;;;;;;;;;;;;;;19.93;76.68;95645.91;4991829;28;20136;-69
2022/08/29 05:57:20;;;;;;;;;;;;;;;19.97;76.72;95652.94;4990594;28;20352;-69
2022/08/29 05:59:49;;;;;;;;;;;;;;;20.08;76.67;95660.50;4990081;28;20053;-68
2022/08/29 06:02:15;;;;;;;;;;;;;;;20.15;76.56;95655.25;4988841;28;20418;-68
2022/08/29 06:04:40;;;;;;;;;;;;;;;20.24;76.51;95653.16;4992445;28;20010;-69
2022/08/29 06:07:06;;;;;;;;;;;;;;;20.32;76.61;95664.88;4989955;28;20013;-68
2022/08/29 06:09:31;;;;;;;;;;;;;;;20.40;76.37;95659.28;4981421;28;20073;-69
2022/08/29 06:11:57;;;;;;;;;;;;;;;20.50;76.52;95663.38;4987291;28;20020;-69
2022/08/29 06:14:22;;;;;;;;;;;;;;;20.59;76.40;95657.78;4990354;28;20200;-69
2022/08/29 06:16:48;;;;;;;;;;;;;;;20.66;76.60;95657.91;4987337;28;20049;-69
2022/08/29 06:19:13;;;;;;;;;;;;;;;20.74;76.61;95656.91;4989796;28;20372;-69
2022/08/29 06:21:38;;;;;;;;;;;;;;;20.82;76.63;95658.59;4987423;28;20764;-69
2022/08/29 06:24:04;;;;;;;;;;;;;;;20.93;76.54;95646.06;4990122;28;20026;-69
2022/08/29 06:26:30;;;;;;;;;;;;;;;21.04;76.54;95654.41;4996007;28;20010;-72
2022/08/29 06:28:55;;;;;;;;;;;;;;;21.13;76.47;95648.75;4992534;28;20463;-71
2022/08/29 06:31:27;;;;;;;;;;;;;;;21.18;76.31;95654.63;4979224;28;20093;-68
2022/08/29 06:33:54;;;;;;;;;;;;;;;21.16;75.34;95658.84;4990739;28;20010;-71
2022/08/29 06:36:19;;;;;;;;;;;;;;;21.25;76.26;95654.00;4988788;28;20011;-69
2022/08/29 06:38:45;;;;;;;;;;;;;;;21.33;76.14;95657.63;4983639;28;20474;-69
2022/08/29 06:41:11;;;;;;;;;;;;;;;21.08;74.37;95666.03;4985173;28;20108;-68
2022/08/29 06:43:37;;;;;;;;;;;;;;;20.82;74.60;95665.94;4987548;28;20009;-69
2022/08/29 06:46:02;;;;;;;;;;;;;;;20.88;75.05;95665.31;4988572;28;20010;-69
2022/08/29 06:48:27;;;;;;;;;;;;;;;20.83;74.24;95670.19;4989722;28;20049;-68
2022/08/29 06:50:53;;;;;;;;;;;;;;;20.80;75.96;95671.72;4988200;28;20525;-69
2022/08/29 06:53:19;;;;;;;;;;;;;;;20.90;74.77;95673.06;4990223;28;20006;-69
2022/08/29 06:55:44;;;;;;;;;;;;;;;21.13;76.56;95678.50;4989738;28;20065;-67
2022/08/29 06:58:11;;;;;;;;;;;;;;;21.25;77.05;95678.34;4991029;28;20014;-67
2022/08/29 07:00:38;;;;;;;;;;;;;;;21.13;75.67;95671.16;4988785;28;20045;-70
2022/08/29 07:03:03;;;;;;;;;;;;;;;21.45;76.71;95679.13;5005938;28;20073;-71
2022/08/29 07:05:28;;;;;;;;;;;;;;;21.64;76.85;95676.34;4980813;28;20049;-71
2022/08/29 07:07:54;;;;;;;;;;;;;;;21.69;76.44;95680.66;4989483;28;20673;-71
2022/08/29 07:10:19;;;;;;;;;;;;;;;21.75;76.76;95682.72;4999930;28;20007;-71
2022/08/29 07:12:44;;;;;;;;;;;;;;;21.83;76.89;95680.13;4985155;28;20015;-69
2022/08/29 07:15:09;;;;;;;;;;;;;;;21.97;76.92;95683.06;4991740;28;20391;-67
2022/08/29 07:17:35;;;;;;;;;;;;;;;22.01;75.79;95681.19;4991468;28;20105;-73
2022/08/29 07:20:00;;;;;;;;;;;;;;;21.88;76.21;95677.09;4988216;28;20068;-73
2022/08/29 07:22:25;;;;;;;;;;;;;;;21.88;77.38;95680.59;4991710;28;20486;-72
2022/08/29 07:24:51;;;;;;;;;;;;;;;22.16;77.41;95680.28;4988831;28;20018;-73
2022/08/29 07:27:17;;;;;;;;;;;;;;;22.31;77.24;95679.31;4990912;28;20007;-73
2022/08/29 07:29:42;;;;;;;;;;;;;;;22.45;76.94;95676.03;4986742;28;20023;-74
2022/08/29 07:32:07;;;;;;;;;;;;;;;22.53;77.28;95682.34;4983384;28;20029;-76
2022/08/29 07:34:33;;;;;;;;;;;;;;;22.36;76.17;95680.16;4990203;28;20002;-73
2022/08/29 07:36:58;;;;;;;;;;;;;;;22.53;76.64;95682.34;4990041;28;20006;-73
2022/08/29 07:39:23;;;;;;;;;;;;;;;22.67;77.30;95687.94;4990966;28;20029;-74
2022/08/29 07:41:49;;;;;;;;;;;;;;;22.84;77.47;95683.88;4983560;28;20089;-72
2022/08/29 07:44:15;;;;;;;;;;;;;;;22.91;76.76;95692.13;4988821;28;20054;-77
2022/08/29 07:46:41;;;;;;;;;;;;;;;23.01;76.63;95686.03;4993534;28;20101;-73
2022/08/29 07:49:07;;;;;;;;;;;;;;;22.96;74.75;95691.81;4987475;28;20142;-71
2022/08/29 07:51:32;;;;;;;;;;;;;;;22.99;76.87;95696.50;4988973;28;20454;-70
2022/08/29 07:53:57;;;;;;;;;;;;;;;23.04;76.44;95693.47;4988999;28;20014;-70
2022/08/29 07:56:28;;;;;;;;;;;;;;;23.08;74.06;95698.91;4987232;28;20009;-70
2022/08/29 07:58:54;;;;;;;;;;;;;;;22.93;74.34;95699.88;4989091;28;20015;-70
2022/08/29 08:01:19;;;;;;;;;;;;;;;22.70;68.09;95700.75;4990205;28;20744;-71
2022/08/29 08:03:44;;;;;;;;;;;;;;;23.02;75.57;95708.53;4989121;28;20108;-70
2022/08/29 08:06:10;;;;;;;;;;;;;;;23.16;75.78;95699.78;4984444;28;20002;-70
2022/08/29 08:08:35;;;;;;;;;;;;;;;23.37;76.62;95699.22;4986812;28;20042;-70
2022/08/29 08:11:05;;;;;;;;;;;;;;;23.48;76.37;95710.97;4988396;28;20053;-71
2022/08/29 08:13:30;;;;;;;;;;;;;;;23.51;76.52;95705.56;4988624;28;20014;-71
2022/08/29 08:15:56;;;;;;;;;;;;;;;23.48;75.88;95709.03;4983857;28;20003;-71
2022/08/29 08:18:21;;;;;;;;;;;;;;;23.48;75.94;95709.03;4996573;28;20455;-71
2022/08/29 08:20:49;;;;;;;;;;;;;;;23.66;76.11;95705.75;4988469;28;20046;-71
2022/08/29 08:23:15;;;;;;;;;;;;;;;23.80;76.20;95703.13;4984798;28;20018;-71
2022/08/29 08:25:41;;;;;;;;;;;;;;;23.92;76.16;95702.88;4986738;28;20025;-74
2022/08/29 08:28:06;;;;;;;;;;;;;;;23.81;72.40;95699.28;4988879;28;20010;-70
2022/08/29 08:30:33;;;;;;;;;;;;;;;23.67;72.07;95708.09;4989039;28;20089;-73
2022/08/29 08:32:58;;;;;;;;;;;;;;;23.84;74.76;95710.16;4988415;28;20015;-74
2022/08/29 08:35:25;;;;;;;;;;;;;;;23.89;74.52;95714.47;4988493;28;20046;-73
2022/08/29 08:37:50;;;;;;;;;;;;;;;24.00;74.59;95712.63;4987488;28;20124;-73
2022/08/29 08:40:26;;;;;;;;;;;;;;;24.19;76.24;95708.88;4983843;28;20007;-71
2022/08/29 08:42:54;;;;;;;;;;;;;;;24.03;71.60;95708.38;4979634;28;20013;-71
2022/08/29 08:45:25;;;;;;;;;;;;;;;24.11;73.81;95710.00;4987293;28;20092;-71
2022/08/29 08:47:55;;;;;;;;;;;;;;;24.20;74.89;95715.09;4989018;28;20555;-72
2022/08/29 08:50:24;;;;;;;;;;;;;;;24.36;74.08;95715.63;4989448;28;20007;-72
2022/08/29 08:52:52;;;;;;;;;;;;;;;24.38;74.20;95713.31;5002456;28;20089;-72
2022/08/29 08:55:30;;;;;;;;;;;;;;;24.47;72.51;95708.34;4988258;28;20533;-72
2022/08/29 08:58:01;;;;;;;;;;;;;;;24.64;74.06;95715.81;4983054;28;20006;-72
2022/08/29 09:00:29;;;;;;;;;;;;;;;24.72;73.05;95705.75;4984256;28;20029;-72
2022/08/29 09:03:11;;;;;;;;;;;;;;;24.81;73.33;95708.09;4989329;28;20014;-73
2022/08/29 09:05:43;;;;;;;;;;;;;;;24.71;70.25;95706.88;4989024;28;20053;-72
2022/08/29 09:08:08;;;;;;;;;;;;;;;24.89;69.25;95710.47;4987285;28;20006;-72
2022/08/29 09:10:50;;;;;;;;;;;;;;;25.10;72.30;95711.75;4985242;28;20015;-73
2022/08/29 09:13:21;;;;;;;;;;;;;;;24.89;64.48;95707.75;4988016;28;20014;-73
2022/08/29 09:15:47;;;;;;;;;;;;;;;25.12;71.39;95703.97;5000228;28;20037;-72
2022/08/29 09:18:20;;;;;;;;;;;;;;;25.19;72.06;95714.91;4982913;28;20046;-73
2022/08/29 09:20:45;;;;;;;;;;;;;;;24.84;62.95;95713.56;4986996;28;20019;-73
2022/08/29 09:23:29;;;;;;;;;;;;;;;24.59;68.28;95710.72;4986769;28;20014;-74
2022/08/29 09:25:54;;;;;;;;;;;;;;;24.27;66.83;95699.63;4984758;28;20014;-73
2022/08/29 09:28:20;;;;;;;;;;;;;;;24.68;71.02;95707.66;4988924;28;20550;-74
2022/08/29 09:31:05;;;;;;;;;;;;;;;25.07;72.21;95712.50;4984851;28;20007;-73
2022/08/29 09:33:38;;;;;;;;;;;;;;;25.27;71.78;95716.47;4986982;28;20432;-75
2022/08/29 09:36:04;;;;;;;;;;;;;;;25.62;68.54;95712.28;4987263;28;20010;-72
2022/08/29 09:38:30;;;;;;;;;;;;;;;26.03;71.24;95703.75;4984683;28;20418;-73
2022/08/29 09:40:55;;;;;;;;;;;;;;;26.13;63.07;95700.25;4985228;28;20006;-72
2022/08/29 09:43:23;;;;;;;;;;;;;;;26.42;65.45;95706.47;4984689;28;20007;-73
2022/08/29 09:46:00;;;;;;;;;;;;;;;26.63;60.06;95700.19;4984915;28;20057;-72
2022/08/29 09:48:26;;;;;;;;;;;;;;;27.29;70.09;95707.78;4999894;28;20077;-73
2022/08/29 09:51:07;;;;;;;;;;;;;;;27.66;67.55;95701.69;4986621;28;20456;-73
2022/08/29 09:53:32;;;;;;;;;;;;;;;27.98;65.65;95704.22;4987077;28;20487;-73
2022/08/29 09:56:03;;;;;;;;;;;;;;;27.82;54.88;95701.97;4986643;28;20013;-73
2022/08/29 09:58:31;;;;;;;;;;;;;;;27.98;66.82;95696.00;4981909;28;20058;-72
2022/08/29 10:01:02;;;;;;;;;;;;;;;27.96;56.86;95693.69;4987515;28;20482;-74
2022/08/29 10:03:31;;;;;;;;;;;;;;;28.15;59.98;95697.03;4985947;28;20009;-74
2022/08/29 10:06:09;;;;;;;;;;;;;;;28.27;62.28;95696.53;4980592;28;20007;-73
2022/08/29 10:08:36;;;;;;;;;;;;;;;28.60;59.09;95697.00;4988165;28;20383;-71
2022/08/29 10:11:18;;;;;;;;;;;;;;;28.62;58.42;95697.41;4986319;28;20011;-72
2022/08/29 10:13:50;;;;;;;;;;;;;;;28.97;59.00;95697.03;4987224;28;20501;-72
2022/08/29 10:16:36;;;;;;;;;;;;;;;29.02;60.96;95704.00;4986007;28;20006;-72
2022/08/29 10:19:03;;;;;;;;;;;;;;;28.88;59.68;95695.94;4986415;28;20053;-72
2022/08/29 10:21:47;;;;;;;;;;;;;;;29.17;62.37;95696.38;4985729;28;20006;-73
2022/08/29 10:24:15;;;;;;;;;;;;;;;29.01;53.47;95702.44;4990046;28;20018;-71
2022/08/29 10:26:47;;;;;;;;;;;;;;;28.36;50.24;95704.31;4986420;28;20117;-72
2022/08/29 10:29:18;;;;;;;;;;;;;;;28.06;52.42;95702.19;4991108;28;20017;-71
2022/08/29 10:32:06;;;;;;;;;;;;;;;27.71;52.02;95698.56;4990155;28;20011;-72
2022/08/29 10:34:31;;;;;;;;;;;;;;;27.95;57.86;95705.03;4984535;28;20006;-73
2022/08/29 10:37:02;;;;;;;;;;;;;;;27.78;51.16;95703.97;4984814;28;20102;-72
2022/08/29 10:39:35;;;;;;;;;;;;;;;27.97;49.54;95705.38;4991410;28;20394;-71
2022/08/29 10:42:18;;;;;;;;;;;;;;;28.44;58.12;95703.81;4986487;28;20018;-72
2022/08/29 10:44:43;;;;;;;;;;;;;;;28.80;57.85;95703.44;4978299;28;20098;-71
2022/08/29 10:47:15;;;;;;;;;;;;;;;28.82;55.25;95698.34;4982386;28;20108;-73
2022/08/29 10:49:52;;;;;;;;;;;;;;;28.97;53.24;95699.75;5003308;28;20050;-72
2022/08/29 10:52:27;;;;;;;;;;;;;;;28.54;48.62;95699.41;4989494;28;20014;-73
2022/08/29 10:54:59;;;;;;;;;;;;;;;27.23;44.63;95690.22;4985725;28;20014;-71
2022/08/29 10:57:45;;;;;;;;;;;;;;;27.15;48.99;95700.41;5002918;28;20007;-72
2022/08/29 11:00:12;;;;;;;;;;;;;;;27.20;55.29;95702.72;4985817;28;20633;-72
2022/08/29 11:03:03;;;;;;;;;;;;;;;27.97;58.91;95703.44;4989408;28;20014;-72
2022/08/29 11:05:32;;;;;;;;;;;;;;;27.30;46.54;95701.91;4983589;28;20050;-71
2022/08/29 11:08:06;;;;;;;;;;;;;;;27.21;55.02;95696.09;4985744;28;20010;-69
2022/08/29 11:10:39;;;;;;;;;;;;;;;26.85;45.52;95696.22;4985546;28;20002;-70
2022/08/29 11:13:08;;;;;;;;;;;;;;;26.31;47.32;95692.84;4987475;28;20013;-71
2022/08/29 11:15:46;;;;;;;;;;;;;;;26.59;50.89;95692.00;4991323;28;20006;-70
2022/08/29 11:18:20;;;;;;;;;;;;;;;26.84;44.90;95689.22;4987908;28;20010;-72
2022/08/29 11:20:50;;;;;;;;;;;;;;;26.47;47.40;95680.75;4989566;28;20010;-71
2022/08/29 11:23:26;;;;;;;;;;;;;;;26.80;49.24;95690.41;4986713;28;20021;-71
2022/08/29 11:25:54;;;;;;;;;;;;;;;27.15;51.16;95692.22;4988054;28;20006;-70
2022/08/29 11:28:35;;;;;;;;;;;;;;;27.17;48.29;95690.63;4986656;28;20011;-71
2022/08/29 11:31:19;;;;;;;;;;;;;;;27.19;47.62;95696.50;4987099;28;20033;-71
2022/08/29 11:33:47;;;;;;;;;;;;;;;27.06;45.92;95691.84;4985508;28;20015;-72
2022/08/29 11:36:24;;;;;;;;;;;;;;;27.36;48.10;95689.38;4986097;28;20006;-71
2022/08/29 11:38:50;;;;;;;;;;;;;;;27.35;46.55;95687.81;4988320;28;20021;-71
2022/08/29 11:41:25;;;;;;;;;;;;;;;26.63;45.76;95689.28;4990297;28;20006;-70
2022/08/29 11:43:52;;;;;;;;;;;;;;;27.15;50.26;95689.50;4988532;28;20042;-71
2022/08/29 11:46:31;;;;;;;;;;;;;;;27.20;49.03;95684.41;4979877;28;20007;-71
2022/08/29 11:49:16;;;;;;;;;;;;;;;27.40;55.42;95690.13;4987646;28;20017;-71
2022/08/29 11:51:42;;;;;;;;;;;;;;;27.15;47.67;95681.31;4990260;28;20006;-70
2022/08/29 11:54:22;;;;;;;;;;;;;;;27.25;47.72;95682.44;4986791;28;20037;-71
2022/08/29 11:56:47;;;;;;;;;;;;;;;26.95;43.69;95687.22;4988372;28;20010;-71
2022/08/29 11:59:32;;;;;;;;;;;;;;;26.85;46.59;95679.84;4988241;28;20014;-70
2022/08/29 12:01:59;;;;;;;;;;;;;;;26.91;46.74;95675.53;4983710;28;20026;-70
2022/08/29 12:04:43;;;;;;;;;;;;;;;26.76;51.04;95684.16;4986391;28;20011;-71
2022/08/29 12:07:08;;;;;;;;;;;;;;;27.01;57.47;95678.59;4986822;28;20010;-71
2022/08/29 12:09:53;;;;;;;;;;;;;;;26.70;47.28;95681.84;4987971;28;20759;-72
2022/08/29 12:12:35;;;;;;;;;;;;;;;27.25;54.98;95672.28;4986139;28;20006;-72
2022/08/29 12:15:00;;;;;;;;;;;;;;;26.80;44.16;95676.75;4981601;28;20049;-71
2022/08/29 12:17:28;;;;;;;;;;;;;;;26.51;47.27;95678.78;4987142;28;20046;-71
2022/08/29 12:19:59;;;;;;;;;;;;;;;26.88;48.07;95681.00;5004307;28;20104;-71
2022/08/29 12:22:43;;;;;;;;;;;;;;;26.61;49.98;95686.16;4982390;28;20011;-71
2022/08/29 12:25:17;;;;;;;;;;;;;;;27.10;49.02;95677.03;4986031;28;20006;-71
2022/08/29 12:28:01;;;;;;;;;;;;;;;27.35;45.41;95665.19;5003728;28;20100;-72
2022/08/29 12:30:30;;;;;;;;;;;;;;;27.13;46.26;95676.25;4986561;28;20006;-71
2022/08/29 12:33:00;;;;;;;;;;;;;;;27.15;45.05;95673.13;4988029;28;20065;-70
2022/08/29 12:35:39;;;;;;;;;;;;;;;27.46;44.68;95674.09;4986856;28;20054;-71
2022/08/29 12:38:15;;;;;;;;;;;;;;;27.31;43.71;95673.41;4988284;28;20499;-71
2022/08/29 12:40:50;;;;;;;;;;;;;;;27.38;44.24;95676.13;4989186;28;20387;-72
2022/08/29 12:43:29;;;;;;;;;;;;;;;27.96;48.98;95666.34;4988009;28;20021;-72
2022/08/29 12:45:55;;;;;;;;;;;;;;;28.28;43.29;95668.00;4984239;28;20020;-72
2022/08/29 12:48:38;;;;;;;;;;;;;;;28.79;49.08;95671.00;4984197;28;20003;-73
2022/08/29 12:51:04;;;;;;;;;;;;;;;29.00;45.26;95666.06;4987970;28;20101;-73
2022/08/29 12:53:33;;;;;;;;;;;;;;;28.65;41.88;95667.22;4979011;28;20168;-73